Urbe Airport LIRU

Flugplatz Daten

Name: Urbe Airport

Ident: LIRU

Lat: 41,95190048

Long: 12,49890041

Platzhöhe: 55 ft

IataCode:

City: Roma

Metar

2021/08/05 12:50
LIRU 051250Z 25010KT 220V290 9999 FEW040 28/17 Q1010

Taf

Gewünschte Webcam nicht vorhanden? Dann fügen Sie eine hinzu. Sie wird dann so schnell wie möglich freigeschaltet
Url: Title: